Terminal Aerodrome Forecast
Issued by NWS Charleston, WV

Current Version | Previous Version | Text Only | Print | Product List | Glossary Off
Versions: 1 2 3 4 5 6 7 8 9 10 11 12 13 14 15 16 17 18 19 20 21 22 23 24 25

000
FTUS41 KRLX 232300
TAFEKN
TAF
KEKN 232331Z 2400/2424 VRB03KT P6SM SCT250
     FM240300 VRB03KT P6SM OVC020
     FM240500 VRB03KT P6SM OVC012
     FM240900 VRB03KT P6SM OVC008
     FM241400 32004KT P6SM OVC010
     FM241800 32006KT P6SM BKN020
     FM242200 32006KT P6SM SCT035=

USA.gov is the U.S. government's official web portal to all federal, state and local government web resources and services.